Time;durP1;ratioP1;P1;durP2;ratioP2;P2;SDS_P1;SDS_P2;PMS_P1;PMS_P2;Temp;Humidity;BMP_temperature;BMP_pressure;BME280_temperature;BME280_humidity;BME280_pressure;Samples;Min_cycle;Max_cycle;Signal;HPM_P1;HPM_P2
2022/01/19 00:00:49;;;;;;;46.03;19.70;;;;;;;;;;4985989;28;20320;-64
2022/01/19 00:03:14;;;;;;;41.40;19.57;;;;;;;;;;4975212;28;20305;-64
2022/01/19 00:05:40;;;;;;;36.08;17.48;;;;;;;;;;4973205;28;20218;-65
2022/01/19 00:08:05;;;;;;;38.97;18.27;;;;;;;;;;4975152;28;20247;-64
2022/01/19 00:10:30;;;;;;;47.38;20.38;;;;;;;;;;4975140;28;20376;-64
2022/01/19 00:12:56;;;;;;;43.07;19.77;;;;;;;;;;4974000;28;20617;-65
2022/01/19 00:15:21;;;;;;;44.72;19.73;;;;;;;;;;4974916;28;20237;-64
2022/01/19 00:17:46;;;;;;;42.80;20.97;;;;;;;;;;4957675;28;20227;-64
2022/01/19 00:20:12;;;;;;;45.67;21.83;;;;;;;;;;4956073;28;20226;-64
2022/01/19 00:22:37;;;;;;;45.45;21.52;;;;;;;;;;4988967;28;20307;-64
2022/01/19 00:25:03;;;;;;;50.03;20.50;;;;;;;;;;5012594;28;20216;-64
2022/01/19 00:27:29;;;;;;;45.38;21.70;;;;;;;;;;5014164;28;20722;-64
2022/01/19 00:29:54;;;;;;;39.20;18.93;;;;;;;;;;5013943;28;20220;-64
2022/01/19 00:32:22;;;;;;;38.08;19.48;;;;;;;;;;5012884;28;20270;-64
2022/01/19 00:34:47;;;;;;;36.55;18.67;;;;;;;;;;5013609;28;20687;-64
2022/01/19 00:37:12;;;;;;;39.33;18.77;;;;;;;;;;5013635;28;20237;-64
2022/01/19 00:39:37;;;;;;;35.63;17.85;;;;;;;;;;5012876;28;20224;-65
2022/01/19 00:42:03;;;;;;;45.23;19.73;;;;;;;;;;5013327;28;20236;-64
2022/01/19 00:44:28;;;;;;;39.38;18.15;;;;;;;;;;5013456;28;20221;-64
2022/01/19 00:46:53;;;;;;;32.90;17.80;;;;;;;;;;5013030;28;20266;-65
2022/01/19 00:49:19;;;;;;;40.72;18.13;;;;;;;;;;4994634;28;20216;-64
2022/01/19 00:51:44;;;;;;;35.47;17.97;;;;;;;;;;4996026;28;20300;-64
2022/01/19 00:54:09;;;;;;;34.40;17.57;;;;;;;;;;5012172;28;20303;-64
2022/01/19 00:56:34;;;;;;;36.03;17.63;;;;;;;;;;5013824;28;20224;-65
2022/01/19 00:59:00;;;;;;;33.07;17.67;;;;;;;;;;4995822;28;20304;-65
2022/01/19 01:01:25;;;;;;;39.50;19.33;;;;;;;;;;4980813;28;20723;-65
2022/01/19 01:03:51;;;;;;;36.83;19.40;;;;;;;;;;4993730;28;20217;-64
2022/01/19 01:06:16;;;;;;;35.92;18.88;;;;;;;;;;4993194;28;20239;-65
2022/01/19 01:08:41;;;;;;;37.85;18.17;;;;;;;;;;4992500;28;20217;-62
2022/01/19 01:11:06;;;;;;;35.93;18.00;;;;;;;;;;4986746;28;20221;-63
2022/01/19 01:16:18;;;;;;;40.53;19.67;;;;;;;;;;4977178;28;20308;-63
2022/01/19 01:18:43;;;;;;;39.67;20.13;;;;;;;;;;4976563;28;20224;-63
2022/01/19 01:21:09;;;;;;;35.30;18.87;;;;;;;;;;4974610;28;20236;-63
2022/01/19 01:23:35;;;;;;;38.45;20.08;;;;;;;;;;5008253;28;20212;-63
2022/01/19 01:26:00;;;;;;;38.70;19.75;;;;;;;;;;5012898;28;20220;-63
2022/01/19 01:28:26;;;;;;;36.08;19.70;;;;;;;;;;5012250;28;20215;-63
2022/01/19 01:30:52;;;;;;;38.43;19.63;;;;;;;;;;5012774;28;20235;-63
2022/01/19 01:33:17;;;;;;;33.97;19.50;;;;;;;;;;4995411;28;20216;-63
2022/01/19 01:35:43;;;;;;;39.87;20.37;;;;;;;;;;4994765;28;20228;-63
2022/01/19 01:38:08;;;;;;;38.80;18.77;;;;;;;;;;5012490;28;20291;-63
2022/01/19 01:40:34;;;;;;;47.23;21.67;;;;;;;;;;5012782;28;20219;-63
2022/01/19 01:43:00;;;;;;;40.00;19.67;;;;;;;;;;4994736;28;20220;-63
2022/01/19 01:45:29;;;;;;;40.03;19.77;;;;;;;;;;4994963;28;20240;-63
2022/01/19 01:48:06;;;;;;;34.08;18.33;;;;;;;;;;5012913;28;20293;-63
2022/01/19 01:53:26;;;;;;;51.90;21.10;;;;;;;;;;5012267;28;20754;-63
2022/01/19 01:55:53;;;;;;;73.28;22.58;;;;;;;;;;4996363;28;20224;-63
2022/01/19 01:58:18;;;;;;;75.53;23.20;;;;;;;;;;5011501;28;20219;-63
2022/01/19 02:00:43;;;;;;;189.50;29.20;;;;;;;;;;5008746;28;20221;-63
2022/01/19 02:03:12;;;;;;;74.77;24.93;;;;;;;;;;4998350;28;20217;-63
2022/01/19 02:05:41;;;;;;;65.17;25.53;;;;;;;;;;4982386;28;20221;-63
2022/01/19 02:08:17;;;;;;;78.00;25.77;;;;;;;;;;4982312;28;20217;-63
2022/01/19 02:16:32;;;;;;;41.27;22.03;;;;;;;;;;4994597;28;20409;-63
2022/01/19 02:21:46;;;;;;;38.67;20.95;;;;;;;;;;4979200;28;20717;-63
2022/01/19 02:24:14;;;;;;;39.40;20.90;;;;;;;;;;4979009;28;20297;-63
2022/01/19 02:26:58;;;;;;;40.17;22.40;;;;;;;;;;4979997;28;20209;-63
2022/01/19 02:42:34;;;;;;;29.77;17.20;;;;;;;;;;4979347;28;20279;-63
2022/01/19 02:49:51;;;;;;;28.80;17.25;;;;;;;;;;4979733;28;20213;-63
2022/01/19 02:52:17;;;;;;;40.20;19.53;;;;;;;;;;4978751;28;20213;-63
2022/01/19 02:54:43;;;;;;;27.70;17.33;;;;;;;;;;4962341;28;20210;-63
2022/01/19 02:57:11;;;;;;;31.50;17.80;;;;;;;;;;4961705;28;20576;-63
2022/01/19 03:10:17;;;;;;;25.95;16.90;;;;;;;;;;4979016;28;20244;-63
2022/01/19 03:12:42;;;;;;;29.27;16.50;;;;;;;;;;4958455;28;20242;-63
2022/01/19 03:15:08;;;;;;;26.63;16.10;;;;;;;;;;4957870;28;20217;-63
2022/01/19 03:17:33;;;;;;;30.83;17.43;;;;;;;;;;4972887;28;20209;-63
2022/01/19 03:19:59;;;;;;;34.77;17.57;;;;;;;;;;4995974;28;20632;-63
2022/01/19 03:22:31;;;;;;;29.60;17.70;;;;;;;;;;4999177;28;20221;-63
2022/01/19 03:24:56;;;;;;;32.47;17.20;;;;;;;;;;4998599;28;20227;-63
2022/01/19 03:27:21;;;;;;;29.50;17.23;;;;;;;;;;5014670;28;20204;-63
2022/01/19 03:29:47;;;;;;;36.60;18.98;;;;;;;;;;4996936;28;20682;-63
2022/01/19 03:32:12;;;;;;;34.45;18.70;;;;;;;;;;5014680;28;20208;-63
2022/01/19 03:34:39;;;;;;;35.35;20.13;;;;;;;;;;5014287;28;20220;-63
2022/01/19 03:37:04;;;;;;;33.75;18.73;;;;;;;;;;5014410;28;20286;-63
2022/01/19 03:39:30;;;;;;;33.23;18.70;;;;;;;;;;5014993;28;20215;-63
2022/01/19 03:41:55;;;;;;;31.33;17.80;;;;;;;;;;5014063;28;20212;-63
2022/01/19 03:44:21;;;;;;;35.13;17.87;;;;;;;;;;5014493;28;20201;-63
2022/01/19 03:46:56;;;;;;;33.50;18.67;;;;;;;;;;5014928;28;20217;-63
2022/01/19 03:49:27;;;;;;;33.57;18.93;;;;;;;;;;4997542;28;20212;-63
2022/01/19 03:51:58;;;;;;;36.53;18.97;;;;;;;;;;4998364;28;20213;-63
2022/01/19 03:54:23;;;;;;;36.83;19.20;;;;;;;;;;4997397;28;20291;-63
2022/01/19 03:56:48;;;;;;;35.27;20.23;;;;;;;;;;4996221;28;20711;-63
2022/01/19 03:59:13;;;;;;;36.87;18.90;;;;;;;;;;5014109;28;20286;-63
2022/01/19 04:01:39;;;;;;;32.73;18.57;;;;;;;;;;4980865;28;20213;-63
2022/01/19 04:06:55;;;;;;;34.50;18.50;;;;;;;;;;4994936;28;20220;-63
2022/01/19 04:09:21;;;;;;;32.03;17.60;;;;;;;;;;4977936;28;20217;-63
2022/01/19 04:11:46;;;;;;;33.03;18.20;;;;;;;;;;4976555;28;20239;-63
2022/01/19 04:14:21;;;;;;;33.57;17.80;;;;;;;;;;4994545;28;20249;-63
2022/01/19 04:16:47;;;;;;;36.47;17.43;;;;;;;;;;4986236;28;20689;-63
2022/01/19 04:21:39;;;;;;;40.87;19.10;;;;;;;;;;4974876;28;20317;-63
2022/01/19 04:24:04;;;;;;;31.47;16.70;;;;;;;;;;5010876;28;20643;-62
2022/01/19 04:26:31;;;;;;;31.60;17.33;;;;;;;;;;5013746;28;20220;-63
2022/01/19 04:28:57;;;;;;;28.73;16.73;;;;;;;;;;4980547;28;20270;-63
2022/01/19 04:31:22;;;;;;;32.20;16.70;;;;;;;;;;5012867;28;20232;-63
2022/01/19 04:33:47;;;;;;;30.23;16.83;;;;;;;;;;5014251;28;20560;-63
2022/01/19 04:36:28;;;;;;;30.87;16.47;;;;;;;;;;5013331;28;20278;-63
2022/01/19 05:03:28;;;;;;;20.27;12.23;;;;;;;;;;4993149;28;20738;-63
2022/01/19 05:06:06;;;;;;;20.80;12.97;;;;;;;;;;4993743;28;20255;-63
2022/01/19 05:13:50;;;;;;;22.80;13.33;;;;;;;;;;4992518;28;20667;-63
2022/01/19 05:16:15;;;;;;;22.10;11.83;;;;;;;;;;4972652;28;20283;-63
2022/01/19 05:18:40;;;;;;;22.33;12.97;;;;;;;;;;4974278;28;20732;-63
2022/01/19 05:21:06;;;;;;;21.17;13.33;;;;;;;;;;4972895;28;20233;-63
2022/01/19 05:23:31;;;;;;;22.70;12.87;;;;;;;;;;4984721;28;20208;-63
2022/01/19 05:25:56;;;;;;;23.03;12.90;;;;;;;;;;5012862;28;20222;-63
2022/01/19 05:28:21;;;;;;;17.47;12.00;;;;;;;;;;5011653;28;20215;-63
2022/01/19 05:30:47;;;;;;;22.40;13.20;;;;;;;;;;5013152;28;20638;-63
2022/01/19 05:33:12;;;;;;;18.40;12.27;;;;;;;;;;5012890;28;20218;-63
2022/01/19 05:35:37;;;;;;;18.57;12.87;;;;;;;;;;5011913;28;20692;-63
2022/01/19 05:38:02;;;;;;;21.07;13.57;;;;;;;;;;4994862;28;20212;-63
2022/01/19 05:40:28;;;;;;;19.20;13.17;;;;;;;;;;5012869;28;20630;-63
2022/01/19 05:42:53;;;;;;;18.43;12.83;;;;;;;;;;4994421;28;20224;-63
2022/01/19 05:45:18;;;;;;;18.03;13.33;;;;;;;;;;5012849;28;20205;-63
2022/01/19 05:47:45;;;;;;;20.23;12.43;;;;;;;;;;5012671;28;20216;-63
2022/01/19 05:50:11;;;;;;;21.57;13.50;;;;;;;;;;5011705;28;20707;-63
2022/01/19 05:52:36;;;;;;;19.77;13.30;;;;;;;;;;4995258;28;20244;-64
2022/01/19 05:55:01;;;;;;;19.73;12.73;;;;;;;;;;5012569;28;20576;-61
2022/01/19 05:57:27;;;;;;;19.70;15.73;;;;;;;;;;5010334;28;20502;-64
2022/01/19 05:59:52;;;;;;;23.67;14.73;;;;;;;;;;5010976;28;20232;-62
2022/01/19 06:02:17;;;;;;;21.17;13.53;;;;;;;;;;4991058;28;20205;-64
2022/01/19 06:04:42;;;;;;;22.57;15.33;;;;;;;;;;4987403;28;20228;-62
2022/01/19 06:07:08;;;;;;;24.67;15.50;;;;;;;;;;4992515;28;20209;-62
2022/01/19 06:09:36;;;;;;;22.53;14.97;;;;;;;;;;4992048;28;20367;-62
2022/01/19 06:12:05;;;;;;;24.35;15.98;;;;;;;;;;4992790;28;20232;-63
2022/01/19 06:14:31;;;;;;;28.43;17.37;;;;;;;;;;4975941;28;20295;-62
2022/01/19 06:16:56;;;;;;;31.77;17.77;;;;;;;;;;4983613;28;20737;-62
2022/01/19 06:19:21;;;;;;;25.27;16.67;;;;;;;;;;4973044;28;20237;-62
2022/01/19 06:21:46;;;;;;;28.90;16.53;;;;;;;;;;4973467;28;20233;-62
2022/01/19 06:24:12;;;;;;;26.57;17.40;;;;;;;;;;5010999;28;20220;-63
2022/01/19 06:26:38;;;;;;;28.63;17.40;;;;;;;;;;4994894;28;20266;-63
2022/01/19 06:29:04;;;;;;;34.00;17.00;;;;;;;;;;5011734;28;20215;-63
2022/01/19 06:31:29;;;;;;;29.50;16.63;;;;;;;;;;5011451;28;20220;-62
2022/01/19 06:33:54;;;;;;;32.50;17.20;;;;;;;;;;5012447;28;20220;-62
2022/01/19 06:36:20;;;;;;;31.47;18.27;;;;;;;;;;5011870;28;22011;-62
2022/01/19 06:38:45;;;;;;;31.77;18.63;;;;;;;;;;5011476;28;20217;-63
2022/01/19 06:41:10;;;;;;;33.80;19.00;;;;;;;;;;5011839;28;20699;-63
2022/01/19 06:43:36;;;;;;;31.67;19.00;;;;;;;;;;5012113;28;20216;-62
2022/01/19 06:46:01;;;;;;;33.33;19.93;;;;;;;;;;4991567;28;20308;-63
2022/01/19 06:48:26;;;;;;;38.77;21.90;;;;;;;;;;4976483;28;20210;-62
2022/01/19 06:50:52;;;;;;;39.30;22.47;;;;;;;;;;4976848;28;20214;-62
2022/01/19 06:53:17;;;;;;;41.50;23.47;;;;;;;;;;4975528;28;20216;-62
2022/01/19 06:55:42;;;;;;;41.23;23.53;;;;;;;;;;4976572;28;20225;-61
2022/01/19 06:58:07;;;;;;;47.40;24.47;;;;;;;;;;4976028;28;20229;-62
2022/01/19 07:00:33;;;;;;;51.67;26.70;;;;;;;;;;4983200;28;20299;-62
2022/01/19 07:02:58;;;;;;;49.93;25.97;;;;;;;;;;4978308;28;20747;-62
2022/01/19 07:05:23;;;;;;;51.13;26.53;;;;;;;;;;4989639;28;20243;-63
2022/01/19 07:07:48;;;;;;;47.87;26.30;;;;;;;;;;4995105;28;20223;-62
2022/01/19 07:10:14;;;;;;;54.43;27.87;;;;;;;;;;4994937;28;20205;-63
2022/01/19 07:12:39;;;;;;;53.63;27.50;;;;;;;;;;4970420;28;20209;-63
2022/01/19 07:15:05;;;;;;;45.80;26.47;;;;;;;;;;4980060;28;20236;-63
2022/01/19 07:17:30;;;;;;;54.80;27.47;;;;;;;;;;4987134;28;20284;-62
2022/01/19 07:19:56;;;;;;;50.13;27.13;;;;;;;;;;4953892;28;20214;-62
2022/01/19 07:22:22;;;;;;;53.47;26.93;;;;;;;;;;4976942;28;20221;-63
2022/01/19 07:24:48;;;;;;;53.80;26.97;;;;;;;;;;4976811;28;20229;-62
2022/01/19 07:27:13;;;;;;;48.30;25.33;;;;;;;;;;4993923;28;20788;-62
2022/01/19 07:29:39;;;;;;;51.47;26.90;;;;;;;;;;4995311;28;20218;-62
2022/01/19 07:32:04;;;;;;;47.93;26.47;;;;;;;;;;4989881;28;20584;-61
2022/01/19 07:34:29;;;;;;;55.87;29.10;;;;;;;;;;4994661;28;20800;-61
2022/01/19 07:36:55;;;;;;;51.17;27.13;;;;;;;;;;4995515;28;20244;-61
2022/01/19 07:39:21;;;;;;;52.93;27.33;;;;;;;;;;4994702;28;20221;-62
2022/01/19 07:41:46;;;;;;;44.17;25.43;;;;;;;;;;4994572;28;20251;-61
2022/01/19 07:44:11;;;;;;;53.33;28.87;;;;;;;;;;4994696;28;20213;-62
2022/01/19 07:46:37;;;;;;;50.17;27.13;;;;;;;;;;4986864;28;20213;-61
2022/01/19 07:49:02;;;;;;;48.53;27.20;;;;;;;;;;4976474;28;20661;-63
2022/01/19 07:51:27;;;;;;;47.93;25.57;;;;;;;;;;4994109;28;20213;-62
2022/01/19 07:53:52;;;;;;;53.33;26.70;;;;;;;;;;4994884;28;20216;-61
2022/01/19 07:56:18;;;;;;;54.50;26.43;;;;;;;;;;4993815;28;20239;-62
2022/01/19 07:58:43;;;;;;;44.60;24.57;;;;;;;;;;4994617;28;20213;-69
2022/01/19 08:01:08;;;;;;;42.13;24.13;;;;;;;;;;4964716;28;20220;-70
2022/01/19 08:03:33;;;;;;;48.30;25.60;;;;;;;;;;4974380;28;20217;-71
2022/01/19 08:05:59;;;;;;;49.40;25.33;;;;;;;;;;4975030;28;20237;-68
2022/01/19 08:08:24;;;;;;;43.00;24.30;;;;;;;;;;4957460;28;20645;-68
2022/01/19 08:10:49;;;;;;;43.73;23.30;;;;;;;;;;4960566;28;20212;-68
2022/01/19 08:13:15;;;;;;;42.87;24.63;;;;;;;;;;4971247;28;20215;-69
2022/01/19 08:15:41;;;;;;;44.90;24.40;;;;;;;;;;4954595;28;20221;-69
2022/01/19 08:18:06;;;;;;;49.03;24.67;;;;;;;;;;4974694;28;20319;-69
2022/01/19 08:20:31;;;;;;;45.07;23.90;;;;;;;;;;4974714;28;20225;-69
2022/01/19 08:22:56;;;;;;;45.20;23.57;;;;;;;;;;5003168;28;20213;-70
2022/01/19 08:25:22;;;;;;;48.80;24.73;;;;;;;;;;4996109;28;20212;-71
2022/01/19 08:27:47;;;;;;;47.33;26.20;;;;;;;;;;4996578;28;20719;-70
2022/01/19 08:30:13;;;;;;;47.27;25.53;;;;;;;;;;4986775;28;20225;-70
2022/01/19 08:32:38;;;;;;;43.17;24.93;;;;;;;;;;4994560;28;20213;-71
2022/01/19 08:35:04;;;;;;;44.97;24.40;;;;;;;;;;5002692;28;20563;-70
2022/01/19 08:37:29;;;;;;;45.07;24.10;;;;;;;;;;4993328;28;20237;-71
2022/01/19 08:39:54;;;;;;;43.17;23.97;;;;;;;;;;4994110;28;20224;-71
2022/01/19 08:42:20;;;;;;;44.67;24.83;;;;;;;;;;4976306;28;20224;-69
2022/01/19 08:44:45;;;;;;;40.10;24.20;;;;;;;;;;4974596;28;20221;-70
2022/01/19 08:47:10;;;;;;;44.40;24.17;;;;;;;;;;4975908;28;20323;-70
2022/01/19 08:49:36;;;;;;;44.80;24.97;;;;;;;;;;4994075;28;20225;-70
2022/01/19 08:52:02;;;;;;;40.93;23.10;;;;;;;;;;4956011;28;20218;-68
2022/01/19 08:54:27;;;;;;;46.70;25.17;;;;;;;;;;4993672;28;20224;-70
2022/01/19 08:56:53;;;;;;;44.00;24.10;;;;;;;;;;4993787;28;20229;-70
2022/01/19 08:59:18;;;;;;;39.70;22.93;;;;;;;;;;4958823;28;20726;-70
2022/01/19 09:01:43;;;;;;;39.30;23.20;;;;;;;;;;4976800;28;20309;-70
2022/01/19 09:04:09;;;;;;;44.73;25.03;;;;;;;;;;4973734;28;20681;-69
2022/01/19 09:06:34;;;;;;;36.90;22.53;;;;;;;;;;4973448;28;20218;-69
2022/01/19 09:08:59;;;;;;;42.37;24.30;;;;;;;;;;4973403;28;20317;-69
2022/01/19 09:11:25;;;;;;;41.70;23.43;;;;;;;;;;4973489;28;20790;-69
2022/01/19 09:13:50;;;;;;;44.20;24.20;;;;;;;;;;4955444;28;20260;-69
2022/01/19 09:16:16;;;;;;;36.93;20.73;;;;;;;;;;4976491;28;20259;-61
2022/01/19 09:18:41;;;;;;;39.63;22.27;;;;;;;;;;4993476;28;20723;-63
2022/01/19 09:21:06;;;;;;;41.97;24.53;;;;;;;;;;4992083;28;20229;-63
2022/01/19 09:23:35;;;;;;;38.93;23.73;;;;;;;;;;5007807;28;20227;-63
2022/01/19 09:26:00;;;;;;;40.90;23.97;;;;;;;;;;5012473;28;20223;-63
2022/01/19 09:28:25;;;;;;;39.50;24.03;;;;;;;;;;4994647;28;20204;-63
2022/01/19 09:30:51;;;;;;;39.47;23.53;;;;;;;;;;5012580;28;20578;-63
2022/01/19 09:33:20;;;;;;;37.00;23.13;;;;;;;;;;4994003;28;20295;-63
2022/01/19 09:36:05;;;;;;;41.33;23.70;;;;;;;;;;5012934;28;20236;-63
2022/01/19 09:38:32;;;;;;;45.07;23.67;;;;;;;;;;5002560;28;20248;-63
2022/01/19 09:40:57;;;;;;;38.47;22.87;;;;;;;;;;4972942;28;20224;-63
2022/01/19 09:43:22;;;;;;;41.00;23.83;;;;;;;;;;4956050;28;20209;-62
2022/01/19 09:45:49;;;;;;;39.87;23.07;;;;;;;;;;4973424;28;20214;-62
2022/01/19 09:48:14;;;;;;;44.33;25.27;;;;;;;;;;4980996;28;20220;-62
2022/01/19 09:50:39;;;;;;;39.30;24.57;;;;;;;;;;4994959;28;20279;-62
2022/01/19 09:53:05;;;;;;;38.83;23.80;;;;;;;;;;5012019;28;20220;-62
2022/01/19 09:55:30;;;;;;;43.77;24.87;;;;;;;;;;5011550;28;20293;-62
2022/01/19 09:57:56;;;;;;;43.67;24.30;;;;;;;;;;5012555;28;20316;-62
2022/01/19 10:00:21;;;;;;;40.70;23.87;;;;;;;;;;5006060;28;20287;-62
2022/01/19 10:03:06;;;;;;;39.00;23.37;;;;;;;;;;4991792;28;20251;-62
2022/01/19 10:05:31;;;;;;;39.43;22.07;;;;;;;;;;4992410;28;20667;-62
2022/01/19 10:07:59;;;;;;;41.03;22.77;;;;;;;;;;4992782;28;20220;-62
2022/01/19 10:10:24;;;;;;;36.53;22.33;;;;;;;;;;4974261;28;20654;-63
2022/01/19 10:18:18;;;;;;;36.10;22.83;;;;;;;;;;4973866;28;20706;-62
2022/01/19 10:20:44;;;;;;;36.00;21.70;;;;;;;;;;4990039;28;20312;-62
2022/01/19 10:23:27;;;;;;;36.80;22.87;;;;;;;;;;5006389;28;20220;-63
2022/01/19 10:25:53;;;;;;;37.77;22.13;;;;;;;;;;5016091;28;20263;-63
2022/01/19 10:28:18;;;;;;;33.17;22.00;;;;;;;;;;5015532;28;20718;-62
2022/01/19 10:30:44;;;;;;;39.83;25.97;;;;;;;;;;4997605;28;20236;-63
2022/01/19 10:33:14;;;;;;;38.03;25.40;;;;;;;;;;5015464;28;20236;-62
2022/01/19 10:35:39;;;;;;;46.87;29.23;;;;;;;;;;4998662;28;20235;-62
2022/01/19 10:38:11;;;;;;;37.20;22.67;;;;;;;;;;5014743;28;20684;-63
2022/01/19 10:40:37;;;;;;;38.53;22.93;;;;;;;;;;5015901;28;20220;-63
2022/01/19 10:43:21;;;;;;;31.27;21.70;;;;;;;;;;4997802;28;20578;-63
2022/01/19 10:45:46;;;;;;;44.50;28.17;;;;;;;;;;5014826;28;20223;-63
2022/01/19 10:48:11;;;;;;;33.97;21.57;;;;;;;;;;5015163;28;20586;-63
2022/01/19 10:50:37;;;;;;;36.70;22.50;;;;;;;;;;4997381;28;20216;-62
2022/01/19 10:53:03;;;;;;;36.67;23.03;;;;;;;;;;4997687;28;20212;-62
2022/01/19 10:55:29;;;;;;;33.70;21.70;;;;;;;;;;4997898;28;20664;-62
2022/01/19 10:57:55;;;;;;;34.37;20.30;;;;;;;;;;4997174;28;20788;-62
2022/01/19 11:00:20;;;;;;;35.80;22.53;;;;;;;;;;5009357;28;20225;-63
2022/01/19 11:02:46;;;;;;;33.27;21.67;;;;;;;;;;4995876;28;20312;-62
2022/01/19 11:05:11;;;;;;;41.30;22.87;;;;;;;;;;4960925;28;20232;-62
2022/01/19 11:07:37;;;;;;;35.03;20.73;;;;;;;;;;4995810;28;20588;-63
2022/01/19 11:10:12;;;;;;;34.87;21.40;;;;;;;;;;4978085;28;20209;-63
2022/01/19 11:12:45;;;;;;;34.57;21.17;;;;;;;;;;4978953;28;20564;-62
2022/01/19 11:15:11;;;;;;;33.30;20.80;;;;;;;;;;4978488;28;20209;-62
2022/01/19 11:17:37;;;;;;;33.63;21.60;;;;;;;;;;4963902;28;20237;-63
2022/01/19 11:20:06;;;;;;;39.30;22.20;;;;;;;;;;4974889;28;20209;-62
2022/01/19 11:22:34;;;;;;;37.70;21.63;;;;;;;;;;4987627;28;20236;-62
2022/01/19 11:25:04;;;;;;;34.60;21.53;;;;;;;;;;5015098;28;20212;-62
2022/01/19 11:27:39;;;;;;;37.67;23.00;;;;;;;;;;4996475;28;20217;-63
2022/01/19 11:30:22;;;;;;;37.93;22.93;;;;;;;;;;5014353;28;20298;-62
2022/01/19 11:33:24;;;;;;;39.80;23.93;;;;;;;;;;4995752;28;20217;-62
2022/01/19 11:35:50;;;;;;;40.73;24.17;;;;;;;;;;5014348;28;20212;-62
2022/01/19 11:38:26;;;;;;;38.17;23.87;;;;;;;;;;4996822;28;20228;-62
2022/01/19 11:40:51;;;;;;;35.17;21.90;;;;;;;;;;5013944;28;20215;-62
2022/01/19 11:43:17;;;;;;;42.97;26.30;;;;;;;;;;5013934;28;20615;-63
2022/01/19 11:45:43;;;;;;;38.27;23.93;;;;;;;;;;4997320;28;20581;-62
2022/01/19 11:48:12;;;;;;;44.73;25.07;;;;;;;;;;5013284;28;20654;-63
2022/01/19 11:50:38;;;;;;;38.50;21.70;;;;;;;;;;4996765;28;20213;-62
2022/01/19 11:53:08;;;;;;;40.43;24.27;;;;;;;;;;5013958;28;20216;-62
2022/01/19 11:55:34;;;;;;;36.67;22.93;;;;;;;;;;5013492;28;20577;-62
2022/01/19 11:58:13;;;;;;;39.60;23.73;;;;;;;;;;5014230;28;20224;-62
2022/01/19 12:00:38;;;;;;;38.65;22.77;;;;;;;;;;4988553;28;20216;-62
2022/01/19 12:03:15;;;;;;;35.43;23.20;;;;;;;;;;4993646;28;20588;-62
2022/01/19 12:05:41;;;;;;;37.37;23.40;;;;;;;;;;4994756;28;20216;-62
2022/01/19 12:08:24;;;;;;;37.20;23.10;;;;;;;;;;4993041;28;20739;-62
2022/01/19 12:10:51;;;;;;;39.63;24.23;;;;;;;;;;4994794;28;20224;-62
2022/01/19 12:13:36;;;;;;;38.73;23.87;;;;;;;;;;4976944;28;20211;-62
2022/01/19 12:16:07;;;;;;;38.50;23.00;;;;;;;;;;4991830;28;20221;-62
2022/01/19 12:18:47;;;;;;;40.77;23.50;;;;;;;;;;4958734;28;20742;-62
2022/01/19 12:21:14;;;;;;;35.93;23.17;;;;;;;;;;4974423;28;20705;-62
2022/01/19 12:23:40;;;;;;;38.73;23.33;;;;;;;;;;5004643;28;20212;-62
2022/01/19 12:26:06;;;;;;;38.10;23.77;;;;;;;;;;5013864;28;20220;-62
2022/01/19 12:28:39;;;;;;;35.87;24.00;;;;;;;;;;5013839;28;20309;-62
2022/01/19 12:31:22;;;;;;;40.70;24.63;;;;;;;;;;5012855;28;20219;-62
2022/01/19 12:34:04;;;;;;;37.17;22.80;;;;;;;;;;5013859;28;20216;-62
2022/01/19 12:36:48;;;;;;;41.10;23.93;;;;;;;;;;5012523;28;20708;-62
2022/01/19 12:39:25;;;;;;;36.73;22.93;;;;;;;;;;5013132;28;20232;-62
2022/01/19 12:41:59;;;;;;;39.63;23.70;;;;;;;;;;5013562;28;20692;-62
2022/01/19 12:44:34;;;;;;;39.60;23.83;;;;;;;;;;5012317;28;20678;-62
2022/01/19 12:47:00;;;;;;;39.00;23.63;;;;;;;;;;5013756;28;20219;-62
2022/01/19 12:49:25;;;;;;;37.20;24.20;;;;;;;;;;5013034;28;20690;-62
2022/01/19 12:51:50;;;;;;;40.93;24.57;;;;;;;;;;5012645;28;20212;-62
2022/01/19 12:54:19;;;;;;;42.13;24.90;;;;;;;;;;5012937;28;20262;-62
2022/01/19 12:56:54;;;;;;;37.20;24.80;;;;;;;;;;4996308;28;20232;-62
2022/01/19 12:59:19;;;;;;;39.00;23.57;;;;;;;;;;5011985;28;20209;-62
2022/01/19 13:01:45;;;;;;;37.93;23.60;;;;;;;;;;4996409;28;20214;-62
2022/01/19 13:04:10;;;;;;;40.40;23.57;;;;;;;;;;4992851;28;20300;-62
2022/01/19 13:06:35;;;;;;;42.70;25.20;;;;;;;;;;4992979;28;20684;-62
2022/01/19 13:09:12;;;;;;;38.17;23.83;;;;;;;;;;4993179;28;20224;-62
2022/01/19 13:11:42;;;;;;;41.77;24.57;;;;;;;;;;4992755;28;20259;-62
2022/01/19 13:14:08;;;;;;;39.67;24.63;;;;;;;;;;4993068;28;20300;-62
2022/01/19 13:16:35;;;;;;;39.13;25.00;;;;;;;;;;4970301;28;20719;-62
2022/01/19 13:19:02;;;;;;;40.63;24.30;;;;;;;;;;4972593;28;20206;-62
2022/01/19 13:21:27;;;;;;;41.67;25.07;;;;;;;;;;4973598;28;20246;-62
2022/01/19 13:23:55;;;;;;;38.70;24.43;;;;;;;;;;5007607;28;20644;-62
2022/01/19 13:26:21;;;;;;;37.63;24.20;;;;;;;;;;5011693;28;20217;-62
2022/01/19 13:28:46;;;;;;;37.47;23.83;;;;;;;;;;5012696;28;20690;-62
2022/01/19 13:31:13;;;;;;;41.10;25.17;;;;;;;;;;5012507;28;20212;-62
2022/01/19 13:33:40;;;;;;;40.73;25.17;;;;;;;;;;5011866;28;20213;-62
2022/01/19 13:36:05;;;;;;;39.13;24.83;;;;;;;;;;4994939;28;20781;-62
2022/01/19 13:38:31;;;;;;;39.70;25.37;;;;;;;;;;5012577;28;20209;-62
2022/01/19 13:41:04;;;;;;;42.27;26.47;;;;;;;;;;5011839;28;20228;-62
2022/01/19 13:43:31;;;;;;;41.30;25.23;;;;;;;;;;5012251;28;20243;-62
2022/01/19 13:46:02;;;;;;;39.60;25.07;;;;;;;;;;5012715;28;20294;-62
2022/01/19 13:48:28;;;;;;;41.37;24.73;;;;;;;;;;4994664;28;20212;-62
2022/01/19 13:50:56;;;;;;;39.73;25.70;;;;;;;;;;5012731;28;20227;-62
2022/01/19 13:53:33;;;;;;;40.13;24.63;;;;;;;;;;5011755;28;20254;-62
2022/01/19 13:55:58;;;;;;;41.80;26.57;;;;;;;;;;5012225;28;20224;-62
2022/01/19 13:58:29;;;;;;;41.00;24.77;;;;;;;;;;5011822;28;20266;-62
2022/01/19 14:00:57;;;;;;;37.43;23.47;;;;;;;;;;5001635;28;20275;-62
2022/01/19 14:03:22;;;;;;;41.57;25.87;;;;;;;;;;4992297;28;20266;-63
2022/01/19 14:05:51;;;;;;;42.17;26.23;;;;;;;;;;4992961;28;20299;-62
2022/01/19 14:08:25;;;;;;;38.83;24.73;;;;;;;;;;4991324;28;20217;-62
2022/01/19 14:10:51;;;;;;;43.30;25.93;;;;;;;;;;4992726;28;20584;-62
2022/01/19 14:13:34;;;;;;;40.07;25.40;;;;;;;;;;4992281;28;20228;-62
2022/01/19 14:16:18;;;;;;;43.07;25.30;;;;;;;;;;4973608;28;20252;-62
2022/01/19 14:19:03;;;;;;;41.00;26.90;;;;;;;;;;4973107;28;20245;-62
2022/01/19 14:21:28;;;;;;;40.97;27.17;;;;;;;;;;4955774;28;20291;-62
2022/01/19 14:24:00;;;;;;;41.47;26.50;;;;;;;;;;5006201;28;20220;-62
2022/01/19 14:26:25;;;;;;;44.57;27.77;;;;;;;;;;5011928;28;20668;-62
2022/01/19 14:29:10;;;;;;;42.00;26.47;;;;;;;;;;4993710;28;20213;-62
2022/01/19 14:31:46;;;;;;;40.83;26.60;;;;;;;;;;5012231;28;20587;-62
2022/01/19 14:34:11;;;;;;;43.73;27.47;;;;;;;;;;4994037;28;20213;-62
2022/01/19 14:36:36;;;;;;;40.83;25.60;;;;;;;;;;5011451;28;20239;-63
2022/01/19 14:39:02;;;;;;;39.60;25.97;;;;;;;;;;4993739;28;20668;-63
2022/01/19 14:41:30;;;;;;;42.40;27.27;;;;;;;;;;5012151;28;20299;-63
2022/01/19 14:44:00;;;;;;;45.20;27.50;;;;;;;;;;5011392;28;20223;-62
2022/01/19 14:46:41;;;;;;;43.00;26.47;;;;;;;;;;5011725;28;20215;-62
2022/01/19 14:49:06;;;;;;;44.17;27.77;;;;;;;;;;4981131;28;20217;-63
2022/01/19 14:51:33;;;;;;;39.03;26.53;;;;;;;;;;4987310;28;20729;-62
2022/01/19 14:53:59;;;;;;;45.33;27.80;;;;;;;;;;4966039;28;20213;-62
2022/01/19 14:56:24;;;;;;;40.87;26.77;;;;;;;;;;4963962;28;20244;-62
2022/01/19 14:59:04;;;;;;;44.20;27.37;;;;;;;;;;4972134;28;20305;-63
2022/01/19 15:01:29;;;;;;;41.97;26.80;;;;;;;;;;4970137;28;20244;-62
2022/01/19 15:03:55;;;;;;;49.23;28.63;;;;;;;;;;4991957;28;20669;-62
2022/01/19 15:06:21;;;;;;;37.40;25.83;;;;;;;;;;4991603;28;20645;-63
2022/01/19 15:08:46;;;;;;;45.43;27.87;;;;;;;;;;4994537;28;20221;-63
2022/01/19 15:11:12;;;;;;;42.73;27.90;;;;;;;;;;4994659;28;20228;-63
2022/01/19 15:13:37;;;;;;;45.90;27.50;;;;;;;;;;4995817;28;20230;-63
2022/01/19 15:16:02;;;;;;;47.40;27.50;;;;;;;;;;4993646;28;20588;-63
2022/01/19 15:18:28;;;;;;;42.93;26.40;;;;;;;;;;4958520;28;20337;-63
2022/01/19 15:20:53;;;;;;;48.57;29.93;;;;;;;;;;4975842;28;20233;-64
2022/01/19 15:23:21;;;;;;;43.43;26.73;;;;;;;;;;4989925;28;20219;-63
2022/01/19 15:25:46;;;;;;;46.63;27.17;;;;;;;;;;4977649;28;20724;-63
2022/01/19 15:28:11;;;;;;;46.67;27.93;;;;;;;;;;4994701;28;20251;-63
2022/01/19 15:30:38;;;;;;;44.17;27.63;;;;;;;;;;4995436;28;20542;-63
2022/01/19 15:33:03;;;;;;;43.30;27.90;;;;;;;;;;4976936;28;20612;-63
2022/01/19 15:35:28;;;;;;;48.57;28.50;;;;;;;;;;4995105;28;20221;-63
2022/01/19 15:37:55;;;;;;;44.43;27.63;;;;;;;;;;4995204;28;20275;-63
2022/01/19 15:40:20;;;;;;;44.90;27.90;;;;;;;;;;4993753;28;20224;-63